Time;durP1;ratioP1;P1;durP2;ratioP2;P2;SDS_P1;SDS_P2;PMS_P1;PMS_P2;Temp;Humidity;BMP_temperature;BMP_pressure;BME280_temperature;BME280_humidity;BME280_pressure;Samples;Min_cycle;Max_cycle;Signal;HPM_P1;HPM_P2
2023/11/02 00:01:38;;;;;;;2.65;1.25;;;10.10;99.90;;;;;;4985287;28;20023;-83
2023/11/02 00:04:04;;;;;;;1.52;0.90;;;10.10;99.90;;;;;;4991948;28;20382;-83
2023/11/02 00:06:37;;;;;;;2.42;1.02;;;10.10;99.90;;;;;;4989416;28;20088;-85
2023/11/02 00:09:11;;;;;;;4.63;1.10;;;10.10;99.90;;;;;;4986962;28;20359;-84
2023/11/02 00:11:49;;;;;;;3.03;0.98;;;10.10;99.90;;;;;;4984751;28;20037;-83
2023/11/02 00:14:14;;;;;;;2.03;1.00;;;10.10;99.90;;;;;;4987547;28;20478;-83
2023/11/02 00:16:40;;;;;;;2.70;1.10;;;10.00;99.90;;;;;;4990211;28;20028;-83
2023/11/02 00:19:07;;;;;;;4.20;1.08;;;10.00;99.90;;;;;;4989588;28;20402;-84
2023/11/02 00:21:33;;;;;;;2.80;1.20;;;10.00;99.90;;;;;;4987946;28;20117;-83
2023/11/02 00:23:58;;;;;;;3.63;1.20;;;9.90;99.90;;;;;;4994436;28;20074;-84
2023/11/02 00:26:26;;;;;;;3.97;1.30;;;9.90;99.90;;;;;;4991208;28;20034;-84
2023/11/02 00:28:51;;;;;;;3.10;1.63;;;9.90;99.90;;;;;;5009157;28;20281;-84
2023/11/02 00:31:17;;;;;;;1.33;0.98;;;9.90;99.90;;;;;;4998839;28;20052;-83
2023/11/02 00:33:42;;;;;;;5.75;1.25;;;9.90;99.90;;;;;;4995130;28;20053;-84
2023/11/02 00:36:11;;;;;;;2.90;0.95;;;9.80;99.90;;;;;;4993476;28;20029;-83
2023/11/02 00:38:36;;;;;;;4.07;1.10;;;9.80;99.90;;;;;;4993769;28;20019;-83
2023/11/02 00:41:03;;;;;;;3.03;1.17;;;9.80;99.90;;;;;;4993588;28;20391;-84
2023/11/02 00:43:28;;;;;;;2.63;1.05;;;9.80;99.90;;;;;;4996679;28;20022;-83
2023/11/02 00:45:54;;;;;;;3.03;1.17;;;9.70;99.90;;;;;;4993394;28;20086;-84
2023/11/02 00:48:27;;;;;;;2.53;1.23;;;9.70;99.90;;;;;;4999306;28;20030;-84
2023/11/02 00:51:21;;;;;;;1.00;0.90;;;9.70;99.90;;;;;;4995756;28;20019;-84
2023/11/02 00:53:51;;;;;;;1.60;0.90;;;9.70;99.90;;;;;;4990361;28;20390;-84
2023/11/02 00:56:17;;;;;;;2.53;1.10;;;9.70;99.90;;;;;;5003963;28;20033;-83
2023/11/02 00:58:48;;;;;;;0.80;0.80;;;9.70;99.90;;;;;;4993074;28;20122;-83
2023/11/02 01:01:16;;;;;;;6.03;1.40;;;9.60;99.90;;;;;;4988606;28;20027;-83
2023/11/02 01:03:47;;;;;;;1.75;0.90;;;9.60;99.90;;;;;;4988993;28;20026;-83
2023/11/02 01:06:19;;;;;;;2.30;0.85;;;9.50;99.90;;;;;;4990317;28;20026;-84
2023/11/02 01:08:52;;;;;;;3.45;0.95;;;9.50;99.90;;;;;;4989458;28;20335;-83
2023/11/02 01:11:18;;;;;;;2.47;0.80;;;9.50;99.90;;;;;;4987297;28;20053;-83
2023/11/02 01:13:44;;;;;;;6.25;1.33;;;9.50;99.90;;;;;;4987193;28;20054;-84
2023/11/02 01:16:10;;;;;;;1.58;1.35;;;9.40;99.90;;;;;;4990080;28;20054;-83
2023/11/02 01:18:41;;;;;;;5.20;1.40;;;9.40;99.90;;;;;;4996755;28;20442;-84
2023/11/02 01:21:07;;;;;;;2.85;1.38;;;9.40;99.90;;;;;;4992742;28;20026;-83
2023/11/02 01:23:34;;;;;;;2.53;0.93;;;9.40;99.90;;;;;;5002805;28;20042;-84
2023/11/02 01:26:08;;;;;;;2.03;1.17;;;9.40;99.90;;;;;;4998772;28;20359;-85
2023/11/02 01:29:03;;;;;;;3.42;1.33;;;9.40;99.90;;;;;;4997105;28;20033;-83
2023/11/02 01:31:34;;;;;;;4.10;1.10;;;9.30;99.90;;;;;;4983840;28;20042;-84
2023/11/02 01:34:02;;;;;;;3.70;1.33;;;9.30;99.90;;;;;;4992883;28;20038;-83
2023/11/02 01:36:36;;;;;;;2.00;1.20;;;9.30;99.90;;;;;;4990139;28;20065;-84
2023/11/02 01:39:14;;;;;;;2.55;1.00;;;9.20;99.90;;;;;;4990575;28;20026;-84
2023/11/02 01:41:47;;;;;;;1.70;1.02;;;9.20;99.90;;;;;;4993466;28;20726;-83
2023/11/02 01:44:31;;;;;;;1.15;1.02;;;9.20;99.90;;;;;;4989935;28;20108;-83
2023/11/02 01:47:18;;;;;;;1.92;1.10;;;9.10;99.90;;;;;;4993172;28;20022;-84
2023/11/02 01:50:14;;;;;;;1.38;0.90;;;9.10;99.90;;;;;;4978055;28;20031;-84
2023/11/02 01:52:42;;;;;;;0.65;0.63;;;9.10;99.90;;;;;;4987578;28;20027;-83
2023/11/02 01:55:19;;;;;;;2.60;0.90;;;9.00;99.90;;;;;;4988214;28;20600;-82
2023/11/02 01:58:04;;;;;;;2.22;1.13;;;9.00;99.90;;;;;;4988198;28;20478;-84
2023/11/02 02:00:39;;;;;;;2.28;0.75;;;9.00;99.90;;;;;;4988684;28;20546;-82
2023/11/02 02:03:21;;;;;;;1.75;0.80;;;9.00;99.90;;;;;;4985834;28;20025;-83
2023/11/02 02:05:54;;;;;;;5.13;1.52;;;9.00;99.90;;;;;;4986352;28;20376;-84
2023/11/02 02:08:45;;;;;;;2.10;0.80;;;8.90;99.90;;;;;;4976380;28;20092;-84
2023/11/02 02:11:23;;;;;;;1.60;1.20;;;8.90;99.90;;;;;;4990463;28;20030;-82
2023/11/02 02:14:05;;;;;;;5.15;1.05;;;8.90;99.90;;;;;;4998878;28;20449;-85
2023/11/02 02:16:40;;;;;;;1.33;0.95;;;8.90;99.90;;;;;;4985074;28;20549;-83
2023/11/02 02:19:31;;;;;;;1.73;1.20;;;8.90;99.90;;;;;;4991162;28;20109;-83
2023/11/02 02:22:05;;;;;;;1.33;0.90;;;8.90;99.90;;;;;;5005211;28;20061;-83
2023/11/02 02:25:18;;;;;;;7.07;1.63;;;8.80;99.90;;;;;;4990066;28;20093;-83
2023/11/02 02:28:20;;;;;;;2.95;1.30;;;8.80;99.90;;;;;;4985646;28;20038;-84
2023/11/02 02:31:17;;;;;;;1.33;1.00;;;8.70;99.90;;;;;;4991791;28;20031;-84
2023/11/02 02:34:02;;;;;;;5.60;1.35;;;8.70;99.90;;;;;;4993400;28;20097;-84
2023/11/02 02:36:45;;;;;;;1.35;0.77;;;8.70;99.90;;;;;;4994604;28;20125;-83
2023/11/02 02:39:17;;;;;;;1.52;1.10;;;8.70;99.90;;;;;;4990009;28;20057;-84
2023/11/02 02:41:44;;;;;;;3.05;1.20;;;8.70;99.90;;;;;;4987044;28;20104;-82
2023/11/02 02:44:13;;;;;;;2.22;0.90;;;8.70;99.90;;;;;;4988022;28;20022;-83
2023/11/02 02:46:40;;;;;;;3.25;1.33;;;8.70;99.90;;;;;;4990020;28;20102;-83
2023/11/02 02:49:06;;;;;;;2.00;1.15;;;8.70;99.90;;;;;;4988566;28;20491;-83
2023/11/02 02:51:35;;;;;;;2.75;1.10;;;8.70;99.90;;;;;;4990479;28;20018;-82
2023/11/02 02:54:10;;;;;;;2.63;0.95;;;8.60;99.90;;;;;;4992871;28;20023;-83
2023/11/02 02:56:37;;;;;;;5.45;1.20;;;8.60;99.90;;;;;;4994097;28;20047;-83
2023/11/02 02:59:06;;;;;;;0.82;0.65;;;8.60;99.90;;;;;;4992519;28;20057;-83
2023/11/02 03:01:38;;;;;;;2.13;1.35;;;8.60;99.90;;;;;;4988785;28;20033;-84
2023/11/02 03:04:09;;;;;;;1.13;1.00;;;8.60;99.90;;;;;;4989201;28;20042;-83
2023/11/02 03:06:38;;;;;;;1.67;1.08;;;8.60;99.90;;;;;;5001677;28;20049;-83
2023/11/02 03:09:04;;;;;;;1.55;1.10;;;8.60;99.90;;;;;;4986341;28;20022;-83
2023/11/02 03:11:30;;;;;;;1.83;0.90;;;8.60;99.90;;;;;;4992597;28;20050;-83
2023/11/02 03:13:58;;;;;;;2.15;0.85;;;8.50;99.90;;;;;;4986911;28;20030;-83
2023/11/02 03:16:34;;;;;;;1.40;1.00;;;8.60;99.90;;;;;;4992527;28;20034;-83
2023/11/02 03:19:00;;;;;;;;;;;8.50;99.90;;;;;;4986963;28;20023;-83
2023/11/02 03:21:26;;;;;;;2.20;1.27;;;8.50;99.90;;;;;;4990654;28;19914;-83
2023/11/02 03:24:17;;;;;;;2.92;1.15;;;8.50;99.90;;;;;;4987176;28;20018;-83
2023/11/02 03:26:56;;;;;;;2.33;0.82;;;8.40;99.90;;;;;;4987528;28;20033;-83
2023/11/02 03:29:33;;;;;;;1.55;1.10;;;8.40;99.90;;;;;;4987772;28;20026;-83
2023/11/02 03:32:20;;;;;;;2.00;1.00;;;8.40;99.90;;;;;;4983780;28;20097;-83
2023/11/02 03:35:04;;;;;;;2.85;0.75;;;8.40;99.90;;;;;;4983610;28;20034;-84
2023/11/02 03:37:47;;;;;;;4.47;1.05;;;8.40;99.90;;;;;;4989033;28;20495;-83
2023/11/02 03:40:25;;;;;;;2.65;0.82;;;8.40;99.90;;;;;;4991483;28;20114;-82
2023/11/02 03:42:58;;;;;;;2.13;0.80;;;8.40;99.90;;;;;;4989255;28;20109;-84
2023/11/02 03:45:41;;;;;;;2.33;0.50;;;8.40;99.90;;;;;;4990083;28;20038;-83
2023/11/02 03:48:22;;;;;;;2.92;1.10;;;8.40;99.90;;;;;;4989179;28;20018;-83
2023/11/02 03:51:01;;;;;;;2.40;1.00;;;8.30;99.90;;;;;;4987050;28;20110;-83
2023/11/02 03:53:41;;;;;;;2.03;0.98;;;8.30;99.90;;;;;;4992800;28;20069;-83
2023/11/02 03:56:24;;;;;;;2.08;0.63;;;8.30;99.90;;;;;;4993879;28;20031;-83
2023/11/02 03:59:20;;;;;;;2.90;1.00;;;8.30;99.90;;;;;;5011754;28;20034;-83
2023/11/02 04:02:01;;;;;;;1.00;0.75;;;8.30;99.90;;;;;;4994084;28;20505;-82
2023/11/02 04:04:45;;;;;;;2.38;1.08;;;8.30;99.90;;;;;;4991325;28;20026;-83
2023/11/02 04:07:51;;;;;;;1.17;0.80;;;8.20;99.90;;;;;;4994043;28;20013;-83
2023/11/02 04:10:29;;;;;;;3.53;0.68;;;8.20;99.90;;;;;;4988394;28;20026;-83
2023/11/02 04:13:16;;;;;;;3.17;0.82;;;8.20;99.90;;;;;;4993213;28;20050;-83
2023/11/02 04:15:42;;;;;;;1.60;0.82;;;8.20;99.90;;;;;;5006978;28;20069;-82
2023/11/02 04:18:09;;;;;;;0.98;0.88;;;8.10;99.90;;;;;;5006056;28;20027;-85
2023/11/02 04:20:36;;;;;;;2.30;0.85;;;8.10;99.90;;;;;;4999233;28;20030;-84
2023/11/02 04:23:02;;;;;;;2.97;0.95;;;8.10;99.90;;;;;;4994291;28;20023;-83
2023/11/02 04:25:28;;;;;;;1.20;0.80;;;8.10;99.90;;;;;;4992283;28;20028;-82
2023/11/02 04:27:54;;;;;;;1.63;0.80;;;8.10;99.90;;;;;;4997347;28;20057;-83
2023/11/02 04:30:20;;;;;;;1.13;0.80;;;8.10;99.90;;;;;;4991090;28;20034;-83
2023/11/02 04:32:45;;;;;;;2.85;1.42;;;8.10;99.90;;;;;;4992032;28;20033;-83
2023/11/02 04:35:11;;;;;;;4.07;1.00;;;8.10;99.90;;;;;;4996492;28;20034;-83
2023/11/02 04:37:37;;;;;;;3.17;1.25;;;8.10;99.90;;;;;;4989081;28;20652;-84
2023/11/02 04:40:03;;;;;;;3.15;1.02;;;8.10;99.90;;;;;;4986862;28;20019;-83
2023/11/02 04:42:29;;;;;;;2.47;1.15;;;8.10;99.90;;;;;;4988853;28;20025;-81
2023/11/02 04:44:55;;;;;;;2.47;0.77;;;8.10;99.90;;;;;;4993274;28;20026;-82
2023/11/02 04:47:20;;;;;;;2.90;0.98;;;8.10;99.90;;;;;;4992893;28;20018;-83
2023/11/02 04:49:46;;;;;;;1.63;0.65;;;8.10;99.90;;;;;;4985837;28;20095;-83
2023/11/02 04:52:11;;;;;;;1.45;1.00;;;8.10;99.90;;;;;;4989581;28;20026;-82
2023/11/02 04:54:37;;;;;;;3.33;0.80;;;8.10;99.90;;;;;;4988485;28;20098;-83
2023/11/02 04:57:03;;;;;;;4.28;1.25;;;8.10;99.90;;;;;;4988011;28;20067;-83
2023/11/02 04:59:42;;;;;;;0.73;0.73;;;8.10;99.90;;;;;;4989795;28;20034;-83
2023/11/02 05:02:08;;;;;;;1.42;0.90;;;8.10;99.90;;;;;;4989368;28;20558;-84
2023/11/02 05:04:33;;;;;;;2.25;1.10;;;8.10;99.90;;;;;;4995512;28;20053;-83
2023/11/02 05:06:59;;;;;;;1.75;0.88;;;8.10;99.90;;;;;;4988958;28;20074;-83
2023/11/02 05:09:25;;;;;;;1.33;0.80;;;8.20;99.90;;;;;;4990296;28;20026;-84
2023/11/02 05:11:51;;;;;;;1.30;1.10;;;8.20;99.90;;;;;;4994020;28;20014;-84
2023/11/02 05:14:16;;;;;;;1.17;0.82;;;8.20;99.90;;;;;;5006131;28;20042;-84
2023/11/02 05:16:42;;;;;;;3.35;0.98;;;8.20;99.90;;;;;;5007896;28;20054;-84
2023/11/02 05:19:07;;;;;;;2.50;0.85;;;8.20;99.90;;;;;;5001105;28;20034;-85
2023/11/02 05:21:33;;;;;;;0.80;0.80;;;8.20;99.90;;;;;;4995451;28;20019;-84
2023/11/02 05:23:58;;;;;;;2.08;0.88;;;8.30;99.90;;;;;;4988991;28;20019;-83
2023/11/02 05:26:24;;;;;;;1.10;0.90;;;8.30;99.90;;;;;;4991740;28;20045;-83
2023/11/02 05:28:51;;;;;;;1.08;0.80;;;8.30;99.90;;;;;;4987715;28;20057;-84
2023/11/02 05:31:16;;;;;;;1.35;0.70;;;8.30;99.90;;;;;;4985018;28;20030;-85
2023/11/02 05:33:42;;;;;;;2.42;0.77;;;8.30;99.90;;;;;;4987875;28;20080;-83
2023/11/02 05:36:08;;;;;;;1.23;0.73;;;8.30;99.90;;;;;;4985295;28;20053;-83
2023/11/02 05:38:33;;;;;;;2.78;0.85;;;8.30;99.90;;;;;;4994598;28;20080;-84
2023/11/02 05:40:59;;;;;;;1.70;0.93;;;8.30;99.90;;;;;;4990409;28;20520;-84
2023/11/02 05:43:25;;;;;;;2.78;0.90;;;8.30;99.90;;;;;;4990781;28;20046;-82
2023/11/02 05:45:50;;;;;;;1.48;0.82;;;8.30;99.90;;;;;;4991701;28;20651;-85
2023/11/02 05:48:16;;;;;;;0.90;0.80;;;8.30;99.90;;;;;;4986702;28;20030;-83
2023/11/02 05:50:41;;;;;;;2.30;0.80;;;8.30;99.90;;;;;;4996275;28;20022;-83
2023/11/02 05:53:07;;;;;;;2.35;0.85;;;8.30;99.90;;;;;;4984406;28;20026;-84
2023/11/02 05:55:33;;;;;;;5.55;0.98;;;8.20;99.90;;;;;;4997458;28;20038;-81
2023/11/02 05:57:58;;;;;;;2.15;1.08;;;8.30;99.90;;;;;;4996507;28;20030;-83
2023/11/02 06:00:24;;;;;;;3.65;1.10;;;8.30;99.90;;;;;;4997763;28;20042;-84
2023/11/02 06:02:49;;;;;;;2.75;1.15;;;8.30;99.90;;;;;;5002170;28;20594;-84
2023/11/02 06:05:15;;;;;;;1.20;1.05;;;8.30;99.90;;;;;;4996085;28;20133;-83
2023/11/02 06:07:40;;;;;;;2.28;0.93;;;8.30;99.90;;;;;;4991952;28;20073;-83
2023/11/02 06:10:06;;;;;;;3.17;1.27;;;8.30;99.90;;;;;;4990964;28;20037;-83
2023/11/02 06:12:32;;;;;;;0.73;0.70;;;8.30;99.90;;;;;;4999510;28;20102;-83
2023/11/02 06:14:58;;;;;;;1.15;1.00;;;8.30;99.90;;;;;;5001112;28;20336;-83
2023/11/02 06:17:23;;;;;;;3.30;0.90;;;8.30;99.90;;;;;;4990495;28;20029;-82
2023/11/02 06:19:49;;;;;;;1.88;0.82;;;8.30;99.90;;;;;;4993054;28;20057;-82
2023/11/02 06:22:15;;;;;;;2.97;1.27;;;8.30;99.90;;;;;;4985920;28;20054;-83
2023/11/02 06:24:42;;;;;;;3.60;0.80;;;8.30;99.90;;;;;;4994296;28;20062;-82
2023/11/02 06:27:08;;;;;;;1.10;0.80;;;8.30;99.90;;;;;;4985756;28;20061;-83
2023/11/02 06:29:34;;;;;;;2.20;1.00;;;8.30;99.90;;;;;;4988184;28;20049;-83
2023/11/02 06:32:00;;;;;;;1.10;1.00;;;8.30;99.90;;;;;;4987981;28;20471;-83
2023/11/02 06:34:26;;;;;;;1.58;0.70;;;8.40;99.90;;;;;;4992782;28;20026;-83
2023/11/02 06:36:51;;;;;;;1.33;0.90;;;8.30;99.90;;;;;;4986751;28;20399;-81
2023/11/02 06:39:20;;;;;;;1.73;0.90;;;8.40;99.90;;;;;;4990907;28;20057;-83
2023/11/02 06:41:47;;;;;;;2.22;0.90;;;8.40;99.90;;;;;;4991346;28;20454;-84
2023/11/02 06:44:12;;;;;;;3.58;1.17;;;8.40;99.90;;;;;;4992532;28;20030;-83
2023/11/02 06:46:38;;;;;;;0.70;0.63;;;8.40;99.90;;;;;;4985534;28;20023;-83
2023/11/02 06:49:03;;;;;;;3.00;0.90;;;8.40;99.90;;;;;;4987816;28;20093;-83
2023/11/02 06:51:30;;;;;;;1.75;0.85;;;8.40;99.90;;;;;;4990514;28;21267;-83
2023/11/02 06:53:56;;;;;;;1.00;0.90;;;8.40;99.90;;;;;;4985911;28;20019;-83
2023/11/02 06:56:25;;;;;;;5.43;0.90;;;8.50;99.90;;;;;;4984126;28;20639;-83
2023/11/02 06:58:51;;;;;;;2.47;0.98;;;8.50;99.90;;;;;;4984586;28;20457;-84
2023/11/02 07:01:17;;;;;;;4.57;1.08;;;8.60;99.90;;;;;;4986169;28;20113;-84
2023/11/02 07:03:43;;;;;;;1.55;0.98;;;8.60;99.90;;;;;;4980776;28;20027;-83
2023/11/02 07:06:09;;;;;;;1.63;0.90;;;8.60;99.90;;;;;;5002128;28;20029;-82
2023/11/02 07:08:34;;;;;;;0.82;0.75;;;8.60;99.90;;;;;;4997024;28;20106;-83
2023/11/02 07:11:02;;;;;;;2.80;0.98;;;8.70;99.90;;;;;;4995694;28;20041;-84
2023/11/02 07:13:29;;;;;;;0.70;0.63;;;8.70;99.90;;;;;;5003840;28;20121;-84
2023/11/02 07:15:54;;;;;;;0.52;0.50;;;8.70;99.90;;;;;;4997594;28;20026;-84
2023/11/02 07:18:20;;;;;;;1.65;0.65;;;8.80;99.90;;;;;;4993091;28;20172;-84
2023/11/02 07:20:46;;;;;;;1.02;0.75;;;8.80;99.90;;;;;;4994496;28;20022;-83
2023/11/02 07:23:11;;;;;;;3.35;1.13;;;8.80;99.90;;;;;;4993406;28;20030;-83
2023/11/02 07:25:37;;;;;;;2.00;1.13;;;8.80;99.90;;;;;;5003471;28;20042;-82
2023/11/02 07:28:03;;;;;;;5.38;0.82;;;8.90;99.90;;;;;;4997271;28;20053;-82
2023/11/02 07:30:28;;;;;;;4.50;1.02;;;8.90;99.90;;;;;;4993351;28;20033;-83
2023/11/02 07:32:54;;;;;;;2.78;1.15;;;8.90;99.90;;;;;;4999203;28;20545;-84
2023/11/02 07:35:19;;;;;;;1.98;1.33;;;8.90;99.90;;;;;;4997542;28;20018;-83
2023/11/02 07:37:45;;;;;;;1.60;1.30;;;8.90;99.90;;;;;;4997312;28;20068;-83
2023/11/02 07:40:11;;;;;;;0.93;0.73;;;8.90;99.90;;;;;;4993200;28;20070;-83
2023/11/02 07:42:37;;;;;;;1.75;1.10;;;8.90;99.90;;;;;;4989775;28;20671;-83
2023/11/02 07:45:03;;;;;;;0.60;0.60;;;8.90;99.90;;;;;;4995795;28;20093;-83
2023/11/02 07:47:29;;;;;;;2.85;0.95;;;8.90;99.90;;;;;;4993929;28;20053;-83
2023/11/02 07:49:54;;;;;;;1.08;0.70;;;8.90;99.90;;;;;;5002720;28;20021;-84
2023/11/02 07:52:20;;;;;;;0.90;0.65;;;9.00;99.90;;;;;;4999540;28;20405;-84
2023/11/02 07:54:45;;;;;;;2.70;1.17;;;9.00;99.90;;;;;;4997358;28;20022;-82
2023/11/02 07:57:11;;;;;;;2.22;1.23;;;9.10;99.90;;;;;;4991935;28;20022;-83
2023/11/02 07:59:37;;;;;;;1.95;1.02;;;9.10;99.90;;;;;;4996755;28;20109;-85
2023/11/02 08:02:04;;;;;;;1.42;0.80;;;9.10;99.90;;;;;;5002090;28;20018;-83
2023/11/02 08:04:30;;;;;;;0.45;0.45;;;9.20;99.90;;;;;;4995276;28;20022;-82
2023/11/02 08:06:55;;;;;;;3.53;0.80;;;9.20;99.90;;;;;;4990111;28;20109;-82
2023/11/02 08:09:21;;;;;;;1.48;0.73;;;9.30;99.90;;;;;;4984757;28;20121;-83
2023/11/02 08:11:47;;;;;;;1.70;0.75;;;9.30;99.90;;;;;;4989527;28;20050;-81
2023/11/02 08:14:12;;;;;;;3.50;0.77;;;9.40;99.90;;;;;;4984331;28;20045;-83
2023/11/02 08:16:38;;;;;;;2.67;0.70;;;9.40;99.90;;;;;;4994858;28;20033;-82
2023/11/02 08:19:03;;;;;;;2.58;0.57;;;9.40;99.90;;;;;;4984780;28;20027;-83
2023/11/02 08:21:29;;;;;;;0.77;0.73;;;9.50;99.90;;;;;;4989482;28;20026;-84
2023/11/02 08:23:56;;;;;;;0.95;0.73;;;9.40;99.90;;;;;;4990276;28;20073;-84
2023/11/02 08:26:23;;;;;;;2.75;1.10;;;9.50;99.90;;;;;;4998652;28;20022;-82
2023/11/02 08:28:52;;;;;;;1.90;0.80;;;9.50;99.90;;;;;;4989625;28;20406;-83
2023/11/02 08:31:26;;;;;;;0.70;0.55;;;9.50;99.90;;;;;;4994763;28;20125;-82
2023/11/02 08:33:51;;;;;;;1.55;0.52;;;9.60;99.90;;;;;;4990060;28;20038;-83
2023/11/02 08:36:19;;;;;;;1.48;0.70;;;9.60;99.90;;;;;;4991095;28;20026;-83
2023/11/02 08:38:45;;;;;;;3.30;0.60;;;9.60;99.90;;;;;;4989973;28;20306;-82
2023/11/02 08:41:21;;;;;;;1.70;0.70;;;9.60;99.90;;;;;;4989736;28;20022;-83
2023/11/02 08:43:47;;;;;;;1.05;0.45;;;9.60;99.90;;;;;;4991205;28;20026;-82
2023/11/02 08:46:17;;;;;;;1.75;0.93;;;9.60;99.90;;;;;;4990627;28;20030;-83
2023/11/02 08:48:47;;;;;;;3.13;0.63;;;9.70;99.90;;;;;;4990682;28;20050;-82
2023/11/02 08:51:17;;;;;;;1.48;0.50;;;9.70;99.90;;;;;;4990927;28;20030;-81
2023/11/02 08:53:43;;;;;;;2.95;0.82;;;9.70;99.90;;;;;;4989190;28;20026;-82
2023/11/02 08:56:09;;;;;;;2.25;1.05;;;9.70;99.90;;;;;;4994118;28;20026;-82
2023/11/02 08:58:46;;;;;;;3.20;0.80;;;9.70;99.90;;;;;;4988266;28;20392;-82
2023/11/02 09:01:22;;;;;;;0.45;0.38;;;9.70;99.90;;;;;;4990884;28;20486;-82
2023/11/02 09:03:50;;;;;;;2.97;0.73;;;9.70;99.90;;;;;;4996561;28;20660;-83
2023/11/02 09:06:16;;;;;;;4.60;0.80;;;9.70;99.90;;;;;;4995073;28;20030;-82
2023/11/02 09:08:42;;;;;;;1.17;0.73;;;9.80;99.90;;;;;;4989598;28;20073;-82
2023/11/02 09:11:08;;;;;;;0.82;0.52;;;9.80;99.90;;;;;;4986683;28;20417;-83
2023/11/02 09:13:34;;;;;;;1.50;0.90;;;9.80;99.90;;;;;;4996653;28;20025;-83
2023/11/02 09:15:59;;;;;;;1.05;0.55;;;9.80;99.90;;;;;;4994645;28;20030;-83
2023/11/02 09:18:26;;;;;;;3.83;2.30;;;9.90;99.90;;;;;;4989087;28;20039;-83
2023/11/02 09:20:53;;;;;;;3.30;1.77;;;9.90;99.90;;;;;;4987684;28;20034;-82
2023/11/02 09:23:18;;;;;;;2.03;1.02;;;9.90;99.90;;;;;;4989234;28;20046;-82
2023/11/02 09:25:46;;;;;;;2.17;1.45;;;9.90;99.90;;;;;;4987079;28;20018;-83
2023/11/02 09:28:15;;;;;;;3.55;1.30;;;10.00;99.90;;;;;;4996865;28;20386;-83
2023/11/02 09:30:45;;;;;;;2.47;1.42;;;10.00;99.90;;;;;;4980397;28;20088;-83
2023/11/02 09:33:12;;;;;;;0.90;0.50;;;9.90;99.90;;;;;;4993299;28;20099;-82
2023/11/02 09:35:38;;;;;;;1.45;0.65;;;10.00;99.90;;;;;;4992285;28;20038;-84
2023/11/02 09:38:05;;;;;;;2.22;0.77;;;10.00;99.90;;;;;;4990466;28;20046;-84
2023/11/02 09:40:32;;;;;;;1.08;0.63;;;10.00;99.90;;;;;;4993937;28;20398;-80
2023/11/02 09:43:02;;;;;;;1.50;0.57;;;10.10;99.90;;;;;;4994440;28;20018;-81
2023/11/02 09:45:31;;;;;;;1.40;1.30;;;10.10;99.90;;;;;;4989961;28;20018;-84
2023/11/02 09:47:56;;;;;;;2.10;0.70;;;10.10;99.90;;;;;;4994550;28;20041;-84
2023/11/02 09:50:26;;;;;;;3.35;0.68;;;10.10;99.90;;;;;;5000567;28;20022;-83
2023/11/02 09:52:56;;;;;;;1.25;0.70;;;10.20;99.90;;;;;;5003712;28;20030;-83
2023/11/02 09:55:22;;;;;;;2.17;0.85;;;10.30;99.90;;;;;;4987501;28;20129;-84
2023/11/02 09:57:49;;;;;;;3.33;0.60;;;10.30;99.90;;;;;;4988177;28;20026;-83
2023/11/02 10:00:17;;;;;;;5.25;0.60;;;10.30;99.90;;;;;;4995813;28;20041;-84
2023/11/02 10:02:47;;;;;;;0.82;0.57;;;10.30;99.90;;;;;;5010254;28;20003;-84
2023/11/02 10:05:13;;;;;;;0.82;0.63;;;10.30;99.90;;;;;;5001352;28;20018;-83
2023/11/02 10:07:39;;;;;;;1.98;0.77;;;10.40;99.90;;;;;;4999852;28;20045;-84
2023/11/02 10:10:05;;;;;;;2.75;0.52;;;10.40;99.90;;;;;;4996279;28;20022;-83
2023/11/02 10:12:37;;;;;;;1.42;0.75;;;10.40;99.90;;;;;;4997379;28;20113;-84
2023/11/02 10:15:07;;;;;;;2.75;0.68;;;10.50;99.90;;;;;;4990468;28;20058;-82
2023/11/02 10:17:39;;;;;;;3.72;0.80;;;10.50;99.90;;;;;;4992500;28;20033;-83
2023/11/02 10:20:15;;;;;;;2.05;0.50;;;10.50;99.90;;;;;;4995468;28;20046;-82
2023/11/02 10:22:42;;;;;;;1.08;0.60;;;10.60;99.90;;;;;;4983392;28;20057;-83
2023/11/02 10:25:14;;;;;;;2.88;0.75;;;10.60;99.90;;;;;;4988428;28;20030;-82
2023/11/02 10:27:44;;;;;;;2.13;0.80;;;10.60;99.90;;;;;;4991180;28;20030;-82
2023/11/02 10:30:11;;;;;;;2.55;0.60;;;10.70;99.90;;;;;;4990876;28;20444;-83
2023/11/02 10:32:37;;;;;;;1.65;0.47;;;10.70;99.90;;;;;;4991846;28;20286;-85
2023/11/02 10:35:03;;;;;;;2.88;0.47;;;10.70;99.90;;;;;;4992030;28;20010;-84
2023/11/02 10:37:34;;;;;;;7.78;1.08;;;10.70;99.90;;;;;;4990230;28;20026;-83
2023/11/02 10:40:00;;;;;;;1.20;0.45;;;10.70;99.90;;;;;;4988296;28;20027;-83
2023/11/02 10:42:27;;;;;;;2.30;0.77;;;10.80;99.90;;;;;;4993067;28;20026;-84
2023/11/02 10:44:53;;;;;;;2.97;0.70;;;10.80;99.90;;;;;;4993894;28;20018;-83
2023/11/02 10:47:19;;;;;;;3.00;0.40;;;10.80;99.90;;;;;;4983837;28;20107;-83
2023/11/02 10:49:50;;;;;;;0.60;0.50;;;10.90;99.90;;;;;;4995588;28;20026;-83
2023/11/02 10:52:27;;;;;;;2.35;0.75;;;10.90;99.90;;;;;;5003974;28;20109;-82
2023/11/02 10:55:18;;;;;;;0.80;0.55;;;10.90;99.90;;;;;;4983887;28;20026;-82
2023/11/02 10:57:46;;;;;;;1.63;0.55;;;10.90;99.90;;;;;;4984904;28;20023;-82
2023/11/02 11:00:14;;;;;;;0.60;0.50;;;10.90;99.90;;;;;;5005468;28;20042;-83
2023/11/02 11:02:41;;;;;;;1.77;0.80;;;10.90;99.90;;;;;;4989716;28;20026;-82
2023/11/02 11:05:10;;;;;;;1.75;0.50;;;11.00;99.90;;;;;;4992494;28;20026;-83
2023/11/02 11:07:37;;;;;;;1.27;0.40;;;11.00;99.90;;;;;;4988085;28;20022;-83
2023/11/02 11:10:03;;;;;;;0.80;0.70;;;11.00;99.90;;;;;;4987297;28;20118;-84
2023/11/02 11:12:30;;;;;;;1.95;0.40;;;11.00;99.90;;;;;;4989252;28;20023;-82
2023/11/02 11:14:58;;;;;;;3.63;0.82;;;11.00;99.90;;;;;;4997541;28;20116;-83
2023/11/02 11:17:24;;;;;;;1.60;0.50;;;11.00;99.90;;;;;;5000805;28;20066;-84
2023/11/02 11:19:50;;;;;;;1.20;0.75;;;11.00;99.90;;;;;;5010501;28;20026;-82
2023/11/02 11:22:21;;;;;;;0.50;0.50;;;11.00;99.90;;;;;;4986566;28;20084;-83
2023/11/02 11:25:04;;;;;;;1.15;0.43;;;11.10;99.90;;;;;;4982070;28;20073;-82
2023/11/02 11:27:37;;;;;;;3.47;0.50;;;11.10;99.90;;;;;;4989242;28;20097;-82
2023/11/02 11:30:04;;;;;;;3.50;0.70;;;11.20;99.90;;;;;;4990166;28;20034;-83
2023/11/02 11:32:32;;;;;;;1.00;0.47;;;11.10;99.90;;;;;;4996597;28;20018;-83
2023/11/02 11:35:00;;;;;;;0.77;0.57;;;11.20;99.90;;;;;;4990768;28;20096;-83
2023/11/02 11:38:19;;;;;;;0.60;0.50;;;11.20;99.90;;;;;;4987913;28;20027;-84
2023/11/02 11:40:19;;;;;;;1.55;0.60;;;11.20;99.90;;;;;;4992482;28;20466;-84
2023/11/02 11:43:15;;;;;;;1.48;0.47;;;11.20;99.90;;;;;;4984657;28;20060;-82
2023/11/02 11:46:04;;;;;;;1.50;0.50;;;11.20;99.90;;;;;;4987719;28;20022;-82
2023/11/02 11:48:39;;;;;;;0.93;0.70;;;11.20;99.90;;;;;;4985708;28;20066;-82
2023/11/02 11:51:40;;;;;;;0.65;0.40;;;11.20;99.90;;;;;;5001407;28;20451;-82
2023/11/02 11:54:15;;;;;;;4.95;0.70;;;11.20;99.90;;;;;;4988058;28;20706;-83
2023/11/02 11:56:42;;;;;;;1.03;0.50;;;11.20;99.90;;;;;;4984551;28;20030;-82
2023/11/02 11:59:09;;;;;;;1.10;0.57;;;11.30;99.90;;;;;;4987201;28;20691;-82
2023/11/02 12:01:36;;;;;;;0.80;0.35;;;11.30;99.90;;;;;;4993328;28;20022;-83
2023/11/02 12:04:02;;;;;;;1.92;0.52;;;11.30;99.90;;;;;;4992133;28;20399;-82
2023/11/02 12:06:43;;;;;;;1.92;0.68;;;11.30;99.90;;;;;;4985995;28;20615;-81
2023/11/02 12:09:12;;;;;;;0.63;0.50;;;11.40;99.90;;;;;;4987376;28;20343;-82
2023/11/02 12:11:40;;;;;;;0.70;0.70;;;11.50;99.90;;;;;;5002224;28;20010;-83
2023/11/02 12:14:15;;;;;;;0.80;0.68;;;11.50;99.90;;;;;;5011471;28;20347;-81
2023/11/02 12:16:41;;;;;;;1.42;0.65;;;11.50;99.90;;;;;;4995141;28;20026;-83
2023/11/02 12:19:08;;;;;;;0.57;0.35;;;11.70;99.90;;;;;;4993818;28;20034;-82
2023/11/02 12:21:35;;;;;;;0.60;0.40;;;11.70;99.90;;;;;;4991820;28;20077;-81
2023/11/02 12:24:01;;;;;;;0.90;0.60;;;11.70;99.90;;;;;;4988165;28;20022;-81
2023/11/02 12:26:27;;;;;;;2.15;0.50;;;11.80;99.90;;;;;;4987195;28;20478;-83
2023/11/02 12:28:56;;;;;;;0.32;0.30;;;11.80;99.90;;;;;;4994449;28;20102;-82
2023/11/02 12:31:26;;;;;;;0.77;0.45;;;11.80;99.90;;;;;;4996349;28;20034;-84
2023/11/02 12:33:52;;;;;;;2.05;0.50;;;11.80;99.90;;;;;;4986870;28;20125;-83
2023/11/02 12:36:17;;;;;;;2.13;0.70;;;11.90;99.90;;;;;;4990378;28;20181;-82
2023/11/02 12:38:45;;;;;;;0.50;0.50;;;11.90;99.90;;;;;;4990385;28;20030;-82
2023/11/02 12:41:28;;;;;;;1.27;0.45;;;12.00;99.90;;;;;;4992246;28;20026;-82
2023/11/02 12:44:05;;;;;;;2.88;0.60;;;12.00;99.90;;;;;;4989504;28;20129;-82
2023/11/02 12:46:43;;;;;;;3.38;0.60;;;12.00;99.90;;;;;;4991732;28;20113;-82
2023/11/02 12:49:25;;;;;;;1.17;0.60;;;12.00;99.90;;;;;;4990577;28;20031;-82
2023/11/02 12:51:50;;;;;;;1.02;0.47;;;11.90;99.90;;;;;;4993528;28;20014;-81
2023/11/02 12:54:17;;;;;;;0.95;0.60;;;11.90;99.90;;;;;;4991393;28;20028;-82
2023/11/02 12:56:49;;;;;;;1.23;0.47;;;11.90;99.90;;;;;;4990843;28;20117;-82
2023/11/02 12:59:16;;;;;;;0.63;0.50;;;11.90;99.90;;;;;;4990100;28;20079;-81
2023/11/02 13:01:53;;;;;;;0.85;0.60;;;11.90;99.90;;;;;;4989520;28;20538;-82
2023/11/02 13:04:20;;;;;;;0.63;0.40;;;12.00;99.90;;;;;;5007316;28;20019;-82
2023/11/02 13:06:46;;;;;;;1.30;0.57;;;12.00;99.90;;;;;;5007888;28;20015;-82
2023/11/02 13:09:17;;;;;;;1.20;0.57;;;12.00;99.90;;;;;;4998500;28;20645;-82
2023/11/02 13:11:45;;;;;;;0.43;0.43;;;12.00;99.90;;;;;;4994679;28;20026;-81